Ana Sayfa
METAR-TAF:

METAR-TAF

Havaalanları :

Upshur County Regional Airport

Buckhannon, Batı Virginia, Amerika Birleşik Devletleri

Enlem: 39-00N, Boylam: 080-16W, yükseklik: 498 m

Güncel hava durumu gözlemi

Rapor saat 17:15 UTC de 12 dakika önce yapıldı.
Rüzgar güneydan 5 kt
Sıcaklık -1°C
Nem 64%
Basınç 1022 hPa
Görüş mesafesi: 16.1 km
2100 ft yükseklikte az bulutlu

METAR: KW22 071715Z AUTO 19005KT 10SM FEW021 M01/M07 A3019 RMK AO2

Saat: 12:27 (17:27 UTC)


TAF: eksik

4.000'den fazla havaalanı için hava durumu gözlemleri ve tahminleri (METAR ve TAF raporları).

Kullanılabilir istasyonlar harita üzerinde sarı ve kırmızı noktalarla gösterilir.

İstasyonun adını görmek için fareyi noktanın üzerinde gezdirin.

Sonrasında hava gözlem ve tahminlerini görmek için tıklayın.

Haritayı değiştirmek için: yaklaştırmak için siyah artı işaretli yeşil düğmeye ve uzaklaştırmak için de eksi işaretli düğmeye hızla tıklayın; bitişik haritalar için yeşil okları kullanın.


METAR-TAF: